createdAt,value
2023-12-23T00:00:04.557Z,3.80
2023-12-23T00:02:17.722Z,3.50
2023-12-23T00:04:26.226Z,3.50
2023-12-23T00:06:34.775Z,3.20
2023-12-23T00:08:43.232Z,5.30
2023-12-23T00:10:52.092Z,3.10
2023-12-23T00:13:18.001Z,3.20
2023-12-23T00:15:26.698Z,3.40
2023-12-23T00:17:35.524Z,4.30
2023-12-23T00:19:44.492Z,2.50
2023-12-23T00:21:53.159Z,3.70
2023-12-23T00:24:01.557Z,2.60
2023-12-23T00:26:10.641Z,2.10
2023-12-23T00:28:19.863Z,1.40
2023-12-23T00:30:29.339Z,4.10
2023-12-23T00:32:37.772Z,2.40
2023-12-23T00:34:46.357Z,2.80
2023-12-23T00:36:54.881Z,2.80
2023-12-23T00:39:05.425Z,3.50
2023-12-23T00:41:14.093Z,2.00
2023-12-23T00:43:22.883Z,3.40
2023-12-23T00:45:31.369Z,2.70
2023-12-23T00:47:40.110Z,2.00
2023-12-23T00:49:48.594Z,2.80
2023-12-23T00:51:57.119Z,3.10
2023-12-23T00:54:05.840Z,1.80
2023-12-23T00:56:19.989Z,2.00
2023-12-23T00:58:28.673Z,3.50
2023-12-23T01:00:39.278Z,2.10
2023-12-23T01:02:47.832Z,3.70
2023-12-23T01:04:56.715Z,3.00
2023-12-23T01:07:05.493Z,2.10
2023-12-23T01:09:15.209Z,2.70
2023-12-23T01:11:24.076Z,4.20
2023-12-23T01:13:32.640Z,2.70
2023-12-23T01:15:41.109Z,2.90
2023-12-23T01:17:49.938Z,1.60
2023-12-23T01:19:59.396Z,2.90
2023-12-23T01:22:08.283Z,3.00
2023-12-23T01:24:16.814Z,3.10
2023-12-23T01:26:25.565Z,2.40
2023-12-23T01:28:34.073Z,3.50
2023-12-23T01:30:43.637Z,2.20
2023-12-23T01:32:52.225Z,4.20
2023-12-23T01:35:00.754Z,4.00
2023-12-23T01:37:09.509Z,4.00
2023-12-23T01:39:17.952Z,3.70
2023-12-23T01:41:26.577Z,2.00
2023-12-23T01:43:35.403Z,3.20
2023-12-23T01:45:43.921Z,3.80
2023-12-23T01:47:55.965Z,3.70
2023-12-23T01:52:12.991Z,3.30
2023-12-23T01:54:23.109Z,3.60
2023-12-23T01:56:31.829Z,2.80
2023-12-23T01:58:40.616Z,2.90
2023-12-23T02:00:49.372Z,3.40
2023-12-23T02:02:58.953Z,3.60
2023-12-23T02:05:09.901Z,2.40
2023-12-23T02:07:18.870Z,1.90
2023-12-23T02:09:27.344Z,1.80
2023-12-23T02:11:43.243Z,2.90
2023-12-23T02:14:00.811Z,2.90
2023-12-23T02:16:10.885Z,2.00
2023-12-23T02:18:20.767Z,2.60
2023-12-23T02:20:29.445Z,4.00
2023-12-23T02:22:40.110Z,1.50
2023-12-23T02:24:48.719Z,3.10
2023-12-23T02:27:02.463Z,2.70
2023-12-23T02:29:11.269Z,2.50
2023-12-23T02:31:20.010Z,3.50
2023-12-23T02:33:28.899Z,3.20
2023-12-23T02:35:38.257Z,1.60
2023-12-23T02:37:46.783Z,1.50
2023-12-23T02:39:55.358Z,3.00
2023-12-23T02:42:04.009Z,2.20
2023-12-23T02:44:12.835Z,2.70
2023-12-23T02:46:23.350Z,2.50
2023-12-23T02:48:32.242Z,2.00
2023-12-23T02:50:40.811Z,3.00
2023-12-23T02:52:50.303Z,4.60
2023-12-23T02:54:58.954Z,4.10
2023-12-23T02:57:07.988Z,3.40
2023-12-23T02:59:16.564Z,4.70
2023-12-23T03:01:25.190Z,3.40
2023-12-23T03:03:33.710Z,4.40
2023-12-23T03:05:42.393Z,3.60
2023-12-23T03:07:51.327Z,2.70
2023-12-23T03:09:59.822Z,2.80
2023-12-23T03:12:09.746Z,2.60
2023-12-23T03:14:18.382Z,4.70
2023-12-23T03:16:29.458Z,3.70
2023-12-23T03:18:40.048Z,3.50
2023-12-23T03:20:49.014Z,2.10
2023-12-23T03:22:57.718Z,2.10
2023-12-23T03:25:07.140Z,3.00
2023-12-23T03:27:15.630Z,3.70
2023-12-23T03:29:24.469Z,5.50
2023-12-23T03:35:53.231Z,1.40
2023-12-23T03:38:02.173Z,2.90
2023-12-23T03:40:12.666Z,3.30
2023-12-23T03:42:22.039Z,5.20
2023-12-23T03:44:30.589Z,5.90
2023-12-23T03:46:39.051Z,1.80
2023-12-23T03:48:47.564Z,2.60
2023-12-23T03:50:56.029Z,1.40
2023-12-23T03:53:04.601Z,2.80
2023-12-23T03:55:14.255Z,2.10
2023-12-23T03:57:23.622Z,3.40
2023-12-23T03:59:33.013Z,2.90
2023-12-23T04:01:41.991Z,3.20
2023-12-23T04:03:50.492Z,4.50
2023-12-23T04:05:58.970Z,3.00
2023-12-23T04:08:08.852Z,2.90
2023-12-23T04:10:17.619Z,2.60
2023-12-23T04:12:26.091Z,1.80
2023-12-23T04:14:36.715Z,1.20
2023-12-23T04:16:45.179Z,3.30
2023-12-23T04:18:54.927Z,3.30
2023-12-23T04:21:03.896Z,2.30
2023-12-23T04:23:12.372Z,3.90
2023-12-23T04:25:22.888Z,3.00
2023-12-23T04:27:31.745Z,3.70
2023-12-23T04:29:40.151Z,2.80
2023-12-23T04:31:48.831Z,3.20
2023-12-23T04:33:57.918Z,5.50
2023-12-23T04:36:07.472Z,3.10
2023-12-23T04:38:16.382Z,4.50
2023-12-23T04:40:25.900Z,3.70
2023-12-23T04:42:34.608Z,2.60
2023-12-23T04:44:43.049Z,1.70
2023-12-23T04:46:52.908Z,1.30
2023-12-23T04:49:01.405Z,3.00
2023-12-23T04:51:10.303Z,1.40
2023-12-23T04:53:19.717Z,2.60
2023-12-23T04:55:28.640Z,4.00
2023-12-23T04:57:37.372Z,2.40
2023-12-23T04:59:45.829Z,2.00
2023-12-23T05:01:54.871Z,3.40
2023-12-23T05:04:03.568Z,4.70
2023-12-23T05:06:12.227Z,3.10
2023-12-23T05:08:20.940Z,3.40
2023-12-23T05:10:29.512Z,3.80
2023-12-23T05:12:37.892Z,4.60
2023-12-23T05:14:46.414Z,2.60
2023-12-23T05:16:54.894Z,5.10
2023-12-23T05:19:03.570Z,1.40
2023-12-23T05:21:12.060Z,1.20
2023-12-23T05:23:20.562Z,1.80
2023-12-23T05:25:29.370Z,2.30
2023-12-23T05:27:37.806Z,2.00
2023-12-23T05:29:46.756Z,3.90
2023-12-23T05:31:55.405Z,4.30
2023-12-23T05:34:04.074Z,2.90
2023-12-23T05:36:13.257Z,6.60
2023-12-23T05:38:22.047Z,5.00
2023-12-23T05:40:30.713Z,3.90
2023-12-23T05:42:39.265Z,1.30
2023-12-23T05:44:47.876Z,3.50
2023-12-23T05:46:56.426Z,1.80
2023-12-23T05:49:05.531Z,2.10
2023-12-23T05:51:14.698Z,3.60
2023-12-23T05:53:23.405Z,3.40
2023-12-23T05:55:32.112Z,3.10
2023-12-23T05:57:40.745Z,1.70
2023-12-23T05:59:49.295Z,2.20
2023-12-23T06:01:57.901Z,2.90
2023-12-23T06:04:06.685Z,1.90
2023-12-23T06:06:15.663Z,4.50
2023-12-23T06:08:24.272Z,2.50
2023-12-23T06:10:43.272Z,3.70
2023-12-23T06:12:58.712Z,3.30
2023-12-23T06:15:08.890Z,3.90
2023-12-23T06:17:17.436Z,3.50
2023-12-23T06:19:26.084Z,5.30
2023-12-23T06:21:34.780Z,3.60
2023-12-23T06:23:43.451Z,3.20
2023-12-23T06:25:51.979Z,4.90
2023-12-23T06:28:00.808Z,3.80
2023-12-23T06:30:12.070Z,5.50
2023-12-23T06:32:21.117Z,3.50
2023-12-23T06:34:29.744Z,1.60
2023-12-23T06:36:38.267Z,3.80
2023-12-23T06:38:46.905Z,3.80
2023-12-23T06:40:56.972Z,4.10
2023-12-23T06:43:43.259Z,2.20
2023-12-23T06:45:33.952Z,4.70
2023-12-23T06:47:42.494Z,3.80
2023-12-23T06:49:51.381Z,2.50
2023-12-23T06:52:00.009Z,6.20
2023-12-23T06:54:08.606Z,6.30
2023-12-23T06:56:17.075Z,3.40
2023-12-23T06:58:29.019Z,5.70
2023-12-23T07:00:37.444Z,2.30
2023-12-23T07:02:46.707Z,3.30
2023-12-23T07:04:55.223Z,2.40
2023-12-23T07:07:03.844Z,6.00
2023-12-23T07:09:12.349Z,3.80
2023-12-23T07:11:20.760Z,3.50
2023-12-23T07:13:30.769Z,2.00
2023-12-23T07:15:39.235Z,2.40
2023-12-23T07:17:49.261Z,2.10
2023-12-23T07:19:58.164Z,4.30
2023-12-23T07:22:07.369Z,5.20
2023-12-23T07:24:15.802Z,6.00
2023-12-23T07:26:24.440Z,4.50
2023-12-23T07:28:33.433Z,6.10
2023-12-23T07:30:46.510Z,5.00
2023-12-23T07:32:55.576Z,4.40
2023-12-23T07:35:04.880Z,3.10
2023-12-23T07:37:13.342Z,1.80
2023-12-23T07:39:21.910Z,5.20
2023-12-23T07:41:30.440Z,3.50
2023-12-23T07:43:39.285Z,4.30
2023-12-23T07:45:48.062Z,3.40
2023-12-23T07:47:56.568Z,7.90
2023-12-23T07:50:05.749Z,3.80
2023-12-23T07:52:14.318Z,3.30
2023-12-23T07:54:22.991Z,2.80
2023-12-23T07:56:31.934Z,6.00
2023-12-23T07:58:40.756Z,3.00
2023-12-23T08:00:49.428Z,6.60
2023-12-23T08:02:58.008Z,5.90
2023-12-23T08:05:09.348Z,4.00
2023-12-23T08:07:18.887Z,3.60
2023-12-23T08:09:27.472Z,6.00
2023-12-23T08:11:36.597Z,3.50
2023-12-23T08:13:45.651Z,3.80
2023-12-23T08:15:54.228Z,2.40
2023-12-23T08:18:03.207Z,2.70
2023-12-23T08:20:13.334Z,4.10
2023-12-23T08:22:22.114Z,4.80
2023-12-23T08:24:31.104Z,2.10
2023-12-23T08:26:39.563Z,5.40
2023-12-23T08:28:48.056Z,3.60
2023-12-23T08:30:56.620Z,3.20
2023-12-23T08:33:05.501Z,3.50
2023-12-23T08:35:15.710Z,2.80
2023-12-23T08:37:24.376Z,3.30
2023-12-23T08:39:32.994Z,4.30
2023-12-23T08:41:41.558Z,2.70
2023-12-23T08:43:50.204Z,4.00
2023-12-23T08:45:58.892Z,3.00
2023-12-23T08:48:08.735Z,4.10
2023-12-23T08:50:17.582Z,3.90
2023-12-23T08:52:26.289Z,3.40
2023-12-23T08:54:35.074Z,3.70
2023-12-23T08:56:43.649Z,1.90
2023-12-23T08:58:52.210Z,5.50
2023-12-23T09:01:01.152Z,3.30
2023-12-23T09:03:10.093Z,2.60
2023-12-23T09:05:19.204Z,2.40
2023-12-23T09:07:27.745Z,5.10
2023-12-23T09:09:36.574Z,2.20
2023-12-23T09:11:48.577Z,2.90
2023-12-23T09:13:57.087Z,4.50
2023-12-23T09:16:06.543Z,4.40
2023-12-23T09:18:15.252Z,6.30
2023-12-23T09:20:23.875Z,3.60
2023-12-23T09:22:32.565Z,2.70
2023-12-23T09:24:42.832Z,2.40
2023-12-23T09:26:51.270Z,3.10
2023-12-23T09:28:59.857Z,2.80
2023-12-23T09:31:08.412Z,1.90
2023-12-23T09:33:17.030Z,4.60
2023-12-23T09:35:25.623Z,2.60
2023-12-23T09:37:34.413Z,5.50
2023-12-23T09:39:42.921Z,3.60
2023-12-23T09:41:51.569Z,4.60
2023-12-23T09:44:00.504Z,5.20
2023-12-23T09:46:10.593Z,2.70
2023-12-23T09:48:19.289Z,2.50
2023-12-23T09:50:28.154Z,3.90
2023-12-23T09:52:37.520Z,2.70
2023-12-23T09:54:53.330Z,2.30
2023-12-23T09:57:02.004Z,7.10
2023-12-23T09:59:10.580Z,4.40
2023-12-23T10:01:19.401Z,3.30
2023-12-23T10:03:30.113Z,3.10
2023-12-23T10:05:44.998Z,4.90
2023-12-23T10:07:58.063Z,3.60
2023-12-23T10:10:08.107Z,3.70
2023-12-23T10:12:16.811Z,4.10
2023-12-23T10:14:26.923Z,5.50
2023-12-23T10:16:37.432Z,6.70
2023-12-23T10:18:47.810Z,3.20
2023-12-23T10:20:56.475Z,5.10
2023-12-23T10:23:05.257Z,4.00
2023-12-23T10:25:14.011Z,3.70
2023-12-23T10:27:23.230Z,5.20
2023-12-23T10:29:35.125Z,6.00
2023-12-23T10:31:48.544Z,3.00
2023-12-23T10:34:02.015Z,3.70
2023-12-23T10:36:14.816Z,3.90
2023-12-23T10:38:24.475Z,2.70
2023-12-23T10:40:33.176Z,5.60
2023-12-23T10:42:44.521Z,3.20
2023-12-23T10:44:54.051Z,4.30
2023-12-23T10:47:03.895Z,4.60
2023-12-23T10:49:13.789Z,5.90
2023-12-23T10:51:23.201Z,2.70
2023-12-23T10:53:33.464Z,4.80
2023-12-23T10:55:43.565Z,4.90
2023-12-23T10:57:53.960Z,4.10
2023-12-23T11:00:02.614Z,4.60
2023-12-23T11:02:15.932Z,1.90
2023-12-23T11:04:25.700Z,4.90
2023-12-23T11:06:37.428Z,4.30
2023-12-23T11:08:46.754Z,3.70
2023-12-23T11:10:57.200Z,5.00
2023-12-23T11:13:08.139Z,3.50
2023-12-23T11:15:16.947Z,5.60
2023-12-23T11:17:31.092Z,3.10
2023-12-23T11:19:39.813Z,3.20
2023-12-23T11:21:48.481Z,3.10
2023-12-23T11:24:00.415Z,3.60
2023-12-23T11:26:46.227Z,2.90
2023-12-23T11:28:54.942Z,1.90
2023-12-23T11:31:05.347Z,3.40
2023-12-23T11:33:15.112Z,3.30
2023-12-23T11:35:23.939Z,3.40
2023-12-23T11:37:52.842Z,3.30
2023-12-23T11:40:06.707Z,3.60
2023-12-23T11:42:16.343Z,2.80
2023-12-23T11:44:27.659Z,4.30
2023-12-23T11:46:37.491Z,3.60
2023-12-23T11:48:46.397Z,2.00
2023-12-23T11:51:00.430Z,5.40
2023-12-23T11:53:09.514Z,4.20
2023-12-23T11:55:19.142Z,3.00
2023-12-23T11:57:28.199Z,3.20
2023-12-23T11:59:37.557Z,3.60
2023-12-23T12:01:46.324Z,6.90
2023-12-23T12:03:54.798Z,3.40
2023-12-23T12:06:03.833Z,4.20
2023-12-23T12:08:12.532Z,4.20
2023-12-23T12:10:21.435Z,2.80
2023-12-23T12:12:30.426Z,4.80
2023-12-23T12:14:38.873Z,5.50
2023-12-23T12:16:47.267Z,2.40
2023-12-23T12:18:56.245Z,5.10
2023-12-23T12:21:05.036Z,5.60
2023-12-23T12:23:15.098Z,4.80
2023-12-23T12:25:27.290Z,3.50
2023-12-23T12:29:43.810Z,4.10
2023-12-23T12:31:53.151Z,4.30
2023-12-23T12:34:01.717Z,3.40
2023-12-23T12:36:15.273Z,3.70
2023-12-23T12:38:24.718Z,3.40
2023-12-23T12:40:37.941Z,3.70
2023-12-23T12:42:53.282Z,5.40
2023-12-23T12:45:06.643Z,4.50
2023-12-23T12:47:15.524Z,3.70
2023-12-23T12:49:25.594Z,7.10
2023-12-23T12:51:36.633Z,4.10
2023-12-23T12:53:45.955Z,4.60
2023-12-23T12:55:54.622Z,3.90
2023-12-23T12:58:03.563Z,3.60
2023-12-23T13:00:14.716Z,2.80
2023-12-23T13:02:24.375Z,5.20
2023-12-23T13:04:33.152Z,3.00
2023-12-23T13:06:41.868Z,5.30
2023-12-23T13:08:50.598Z,5.10
2023-12-23T13:10:59.416Z,4.10
2023-12-23T13:13:08.168Z,5.60
2023-12-23T13:15:17.356Z,4.60
2023-12-23T13:17:26.636Z,5.90
2023-12-23T13:19:35.443Z,2.80
2023-12-23T13:21:44.738Z,3.90
2023-12-23T13:23:53.460Z,3.70
2023-12-23T13:26:03.002Z,4.40
2023-12-23T13:28:11.819Z,3.40
2023-12-23T13:30:20.957Z,3.20
2023-12-23T13:32:29.698Z,4.30
2023-12-23T13:34:38.637Z,4.30
2023-12-23T13:36:47.466Z,5.10
2023-12-23T13:38:55.999Z,4.20
2023-12-23T13:41:05.153Z,3.50
2023-12-23T13:43:14.494Z,4.80
2023-12-23T13:45:23.354Z,5.50
2023-12-23T13:47:31.988Z,2.50
2023-12-23T13:49:41.357Z,6.70
2023-12-23T13:51:49.920Z,4.90
2023-12-23T13:53:58.697Z,4.60
2023-12-23T13:56:09.907Z,7.30
2023-12-23T13:58:19.788Z,4.90
2023-12-23T14:00:29.832Z,3.60
2023-12-23T14:02:38.258Z,5.10
2023-12-23T14:04:47.331Z,4.30
2023-12-23T14:06:55.893Z,4.20
2023-12-23T14:09:04.746Z,4.50
2023-12-23T14:11:13.798Z,6.90
2023-12-23T14:13:23.173Z,4.80
2023-12-23T14:15:31.799Z,4.50
2023-12-23T14:17:40.900Z,6.00
2023-12-23T14:19:49.649Z,4.40
2023-12-23T14:21:58.669Z,4.10
2023-12-23T14:24:10.523Z,4.50
2023-12-23T14:26:19.330Z,5.20
2023-12-23T14:28:31.045Z,9.20
2023-12-23T14:32:46.994Z,10.70
2023-12-23T14:34:56.786Z,5.90
2023-12-23T14:37:05.613Z,5.30
2023-12-23T14:39:15.243Z,5.20
2023-12-23T14:41:24.467Z,6.10
2023-12-23T14:43:34.762Z,6.80
2023-12-23T14:45:44.061Z,5.20
2023-12-23T14:47:53.375Z,4.00
2023-12-23T14:50:03.408Z,3.30
2023-12-23T14:52:13.315Z,6.30
2023-12-23T14:54:22.448Z,6.90
2023-12-23T14:56:31.509Z,4.30
2023-12-23T14:58:40.463Z,5.20
2023-12-23T15:00:49.242Z,9.00
2023-12-23T15:02:58.781Z,9.00
2023-12-23T15:05:09.668Z,11.30
2023-12-23T15:07:18.798Z,12.10
2023-12-23T15:09:29.043Z,15.00
2023-12-23T15:11:38.291Z,9.30
2023-12-23T15:13:46.935Z,5.70
2023-12-23T15:15:55.784Z,7.70
2023-12-23T15:18:04.917Z,9.80
2023-12-23T15:20:14.264Z,5.40
2023-12-23T15:22:25.272Z,5.50
2023-12-23T15:24:36.592Z,9.00
2023-12-23T15:26:47.155Z,3.80
2023-12-23T15:28:56.053Z,3.20
2023-12-23T15:31:04.993Z,7.40
2023-12-23T15:33:13.817Z,3.50
2023-12-23T15:35:22.568Z,3.90
2023-12-23T15:37:31.638Z,4.00
2023-12-23T15:39:40.508Z,3.30
2023-12-23T15:41:49.111Z,2.80
2023-12-23T15:43:59.916Z,4.70
2023-12-23T15:46:08.947Z,5.10
2023-12-23T15:48:18.039Z,6.40
2023-12-23T15:50:27.406Z,3.30
2023-12-23T15:52:37.246Z,4.10
2023-12-23T15:54:49.823Z,4.50
2023-12-23T15:57:02.237Z,3.00
2023-12-23T15:59:12.732Z,4.50
2023-12-23T16:01:24.225Z,6.80
2023-12-23T16:03:33.385Z,5.90
2023-12-23T16:05:43.524Z,5.70
2023-12-23T16:07:52.442Z,6.00
2023-12-23T16:10:01.161Z,5.20
2023-12-23T16:12:10.447Z,7.00
2023-12-23T16:14:19.042Z,5.60
2023-12-23T16:16:28.970Z,6.10
2023-12-23T16:18:41.435Z,10.70
2023-12-23T16:20:53.606Z,4.90
2023-12-23T16:23:02.425Z,5.60
2023-12-23T16:25:12.891Z,5.50
2023-12-23T16:27:24.185Z,4.50
2023-12-23T16:29:33.510Z,5.70
2023-12-23T16:31:43.070Z,4.00
2023-12-23T16:33:54.685Z,5.10
2023-12-23T16:36:06.642Z,6.00
2023-12-23T16:38:16.492Z,8.00
2023-12-23T16:40:26.843Z,4.90
2023-12-23T16:42:38.445Z,4.70
2023-12-23T16:44:48.654Z,4.60
2023-12-23T16:46:57.883Z,5.10
2023-12-23T16:49:06.970Z,3.40
2023-12-23T16:51:16.179Z,6.50
2023-12-23T16:53:25.650Z,7.80
2023-12-23T16:55:35.388Z,5.70
2023-12-23T16:57:44.282Z,3.90
2023-12-23T16:59:53.068Z,4.40
2023-12-23T17:02:06.530Z,5.10
2023-12-23T17:06:23.529Z,7.10
2023-12-23T17:08:32.347Z,5.40
2023-12-23T17:10:44.504Z,7.00
2023-12-23T17:12:54.337Z,9.20
2023-12-23T17:15:08.418Z,6.90
2023-12-23T17:17:17.734Z,5.40
2023-12-23T17:19:27.757Z,3.90
2023-12-23T17:21:36.644Z,5.70
2023-12-23T17:23:46.190Z,4.60
2023-12-23T17:25:56.058Z,5.90
2023-12-23T17:28:12.048Z,6.40
2023-12-23T17:30:23.888Z,6.20
2023-12-23T17:32:34.066Z,6.80
2023-12-23T17:34:43.773Z,9.10
2023-12-23T17:36:56.480Z,7.30
2023-12-23T17:39:06.563Z,7.30
2023-12-23T17:41:15.926Z,6.40
2023-12-23T17:43:26.807Z,13.40
2023-12-23T17:45:38.403Z,7.00
2023-12-23T17:47:51.124Z,4.50
2023-12-23T17:50:07.032Z,6.50
2023-12-23T17:52:17.643Z,5.70
2023-12-23T17:54:28.947Z,5.40
2023-12-23T17:56:37.904Z,6.50
2023-12-23T17:58:47.336Z,7.60
2023-12-23T18:00:56.384Z,6.80
2023-12-23T18:03:06.878Z,6.70
2023-12-23T18:05:18.243Z,5.30
2023-12-23T18:07:27.247Z,6.30
2023-12-23T18:09:36.204Z,7.90
2023-12-23T18:11:45.030Z,4.10
2023-12-23T18:13:54.414Z,5.70
2023-12-23T18:16:06.103Z,7.30
2023-12-23T18:18:15.305Z,5.40
2023-12-23T18:20:24.691Z,5.20
2023-12-23T18:22:35.759Z,7.90
2023-12-23T18:24:45.988Z,4.90
2023-12-23T18:26:57.760Z,7.10
2023-12-23T18:29:08.120Z,8.40
2023-12-23T18:31:17.417Z,10.10
2023-12-23T18:33:29.779Z,6.70
2023-12-23T18:35:40.283Z,8.20
2023-12-23T18:37:51.596Z,5.50
2023-12-23T18:40:01.628Z,8.90
2023-12-23T18:42:11.650Z,6.40
2023-12-23T18:44:21.586Z,5.30
2023-12-23T18:46:35.852Z,4.30
2023-12-23T18:50:53.997Z,6.50
2023-12-23T18:53:02.925Z,5.40
2023-12-23T18:55:15.209Z,8.40
2023-12-23T18:57:27.951Z,6.50
2023-12-23T18:59:38.186Z,8.20
2023-12-23T19:01:47.880Z,8.50
2023-12-23T19:03:59.296Z,10.20
2023-12-23T19:06:10.459Z,7.60
2023-12-23T19:08:20.042Z,7.10
2023-12-23T19:10:30.481Z,5.40
2023-12-23T19:12:43.024Z,12.00
2023-12-23T19:14:57.582Z,13.20
2023-12-23T19:17:07.906Z,7.90
2023-12-23T19:19:23.628Z,6.70
2023-12-23T19:21:32.879Z,6.70
2023-12-23T19:23:45.871Z,6.20
2023-12-23T19:25:55.295Z,5.50
2023-12-23T19:28:08.659Z,7.20
2023-12-23T19:30:18.594Z,7.60
2023-12-23T19:32:31.216Z,6.10
2023-12-23T19:34:45.532Z,8.00
2023-12-23T19:39:05.103Z,10.00
2023-12-23T19:41:17.969Z,6.00
2023-12-23T19:43:27.370Z,7.60
2023-12-23T19:45:45.065Z,8.20
2023-12-23T19:47:57.554Z,5.10
2023-12-23T19:50:10.044Z,6.20
2023-12-23T19:52:21.409Z,8.30
2023-12-23T19:54:30.622Z,7.80
2023-12-23T19:56:44.140Z,8.60
2023-12-23T19:59:03.574Z,6.70
2023-12-23T20:01:13.429Z,11.30
2023-12-23T20:05:39.887Z,7.00
2023-12-23T20:07:50.519Z,9.40
2023-12-23T20:10:07.494Z,8.60
2023-12-23T20:12:22.470Z,8.60
2023-12-23T20:14:36.131Z,10.20
2023-12-23T20:16:45.944Z,7.10
2023-12-23T20:18:57.279Z,8.30
2023-12-23T20:21:09.699Z,7.30
2023-12-23T20:23:24.348Z,9.30
2023-12-23T20:25:36.417Z,7.80
2023-12-23T20:27:47.613Z,7.50
2023-12-23T20:30:03.872Z,5.90
2023-12-23T20:32:19.675Z,7.50
2023-12-23T20:34:30.299Z,6.20
2023-12-23T20:36:45.408Z,5.90
2023-12-23T20:38:58.516Z,6.80
2023-12-23T20:41:08.317Z,9.50
2023-12-23T20:43:18.874Z,10.20
2023-12-23T20:45:43.632Z,11.20
2023-12-23T20:48:00.714Z,9.80
2023-12-23T20:50:15.876Z,8.40
2023-12-23T20:52:31.086Z,8.00
2023-12-23T20:54:44.062Z,11.60
2023-12-23T20:56:54.214Z,8.60
2023-12-23T20:59:09.679Z,10.70
2023-12-23T21:01:24.443Z,8.90
2023-12-23T21:03:34.471Z,7.40
2023-12-23T21:05:46.953Z,7.40
2023-12-23T21:07:59.341Z,7.50
2023-12-23T21:10:15.184Z,7.10
2023-12-23T21:12:29.023Z,5.30
2023-12-23T21:14:37.830Z,8.70
2023-12-23T21:16:55.023Z,9.10
2023-12-23T21:19:07.655Z,6.60
2023-12-23T21:21:18.908Z,9.60
2023-12-23T21:23:29.440Z,9.70
2023-12-23T21:25:38.819Z,9.50
2023-12-23T21:27:48.462Z,13.20
2023-12-23T21:30:01.138Z,14.90
2023-12-23T21:32:14.090Z,9.90
2023-12-23T21:34:24.454Z,8.70
2023-12-23T21:36:38.294Z,9.30
2023-12-23T21:38:54.782Z,11.30
2023-12-23T21:41:09.053Z,12.20
2023-12-23T21:43:24.729Z,9.80
2023-12-23T21:45:36.729Z,7.80
2023-12-23T21:47:49.368Z,10.60
2023-12-23T21:50:02.486Z,11.60
2023-12-23T21:52:13.009Z,8.40
2023-12-23T21:54:25.285Z,11.10
2023-12-23T21:56:40.670Z,10.00
2023-12-23T21:58:52.478Z,11.00
2023-12-23T22:01:03.524Z,7.10
2023-12-23T22:03:13.330Z,8.60
2023-12-23T22:05:24.899Z,10.60
2023-12-23T22:07:34.406Z,7.30
2023-12-23T22:09:43.016Z,10.30
2023-12-23T22:11:52.072Z,8.60
2023-12-23T22:14:01.984Z,10.10
2023-12-23T22:16:11.181Z,10.80
2023-12-23T22:18:20.762Z,11.90
2023-12-23T22:20:29.688Z,6.40
2023-12-23T22:22:38.242Z,7.00
2023-12-23T22:24:47.163Z,5.00
2023-12-23T22:26:57.793Z,7.00
2023-12-23T22:29:06.538Z,5.30
2023-12-23T22:31:15.143Z,4.00
2023-12-23T22:33:23.648Z,3.40
2023-12-23T22:35:33.541Z,3.80
2023-12-23T22:37:43.285Z,7.00
2023-12-23T22:39:52.796Z,3.80
2023-12-23T22:42:01.877Z,4.80
2023-12-23T22:44:11.413Z,4.30
2023-12-23T22:46:21.669Z,6.50
2023-12-23T22:48:32.709Z,3.70
2023-12-23T22:50:41.403Z,4.20
2023-12-23T22:52:50.326Z,5.00
2023-12-23T22:54:59.556Z,4.60
2023-12-23T22:57:09.717Z,4.10
2023-12-23T22:59:18.403Z,3.40
2023-12-23T23:01:27.296Z,3.80
2023-12-23T23:03:36.521Z,5.20
2023-12-23T23:05:45.162Z,3.70
2023-12-23T23:07:54.149Z,4.20
2023-12-23T23:10:02.753Z,6.80
2023-12-23T23:12:11.721Z,25.10
2023-12-23T23:14:20.256Z,24.20
2023-12-23T23:16:28.843Z,20.10
2023-12-23T23:18:37.566Z,6.80
2023-12-23T23:20:46.191Z,6.10
2023-12-23T23:22:54.931Z,6.40
2023-12-23T23:25:03.989Z,6.70
2023-12-23T23:27:12.453Z,6.60
2023-12-23T23:29:21.176Z,7.20
2023-12-23T23:31:29.747Z,5.30
2023-12-23T23:33:38.323Z,6.00
2023-12-23T23:35:46.826Z,4.90
2023-12-23T23:37:55.315Z,3.90
2023-12-23T23:40:04.438Z,5.90
2023-12-23T23:42:12.914Z,4.90
2023-12-23T23:44:21.404Z,4.20
2023-12-23T23:46:29.874Z,4.40
2023-12-23T23:48:38.838Z,6.50
2023-12-23T23:50:47.715Z,5.30
2023-12-23T23:52:56.357Z,4.10
2023-12-23T23:55:06.932Z,4.40
2023-12-23T23:57:15.436Z,7.20
2023-12-23T23:59:24.018Z,4.80
